Wetterstation Vordersexau
Wetterdaten: Woche 04.06.12 - 10.06.12 (KW23)
Datum Zeit Temp. A. Feuchte A. Luftdruck Regen Wind Richtung Taupunkt Windchill Windben
04.06.2012 00:00 14,2 C 76 % 1010,9 hPa 0,0 l/m 0,0 km/h SO 10,0 C 14,2 C 0,0 km/h
04.06.2012 01:00 13,1 C 77 % 1010,7 hPa 1,4 l/m 2,6 km/h S-SO 9,2 C 13,1 C 1,4 km/h
04.06.2012 02:00 12,9 C 76 % 1010,8 hPa 0,4 l/m 0,0 km/h SO 8,8 C 12,9 C 0,0 km/h
04.06.2012 03:00 12,4 C 75 % 1010,4 hPa 0,7 l/m 0,0 km/h NO 8,1 C 12,4 C 0,0 km/h
04.06.2012 04:00 12,1 C 76 % 1009,9 hPa 0,0 l/m 0,0 km/h SO 8,0 C 12,1 C 0,0 km/h
04.06.2012 05:00 11,4 C 75 % 1009,8 hPa 0,0 l/m 0,0 km/h O-SO 7,1 C 11,4 C 0,0 km/h
04.06.2012 06:00 11,6 C 76 % 1010,3 hPa 0,0 l/m 0,0 km/h NO 7,5 C 11,6 C 0,0 km/h
04.06.2012 07:00 12,4 C 73 % 1010,4 hPa 0,0 l/m 0,0 km/h SO 7,7 C 12,4 C 0,0 km/h
04.06.2012 08:00 13,9 C 71 % 1010,6 hPa 0,4 l/m 0,0 km/h S 8,7 C 13,9 C 0,0 km/h
04.06.2012 09:00 14,9 C 78 % 1010,4 hPa 0,0 l/m 0,0 km/h SW 11,1 C 14,9 C 0,0 km/h
04.06.2012 10:00 14,8 C 84 % 1010,7 hPa 0,0 l/m 24,0 km/h SW 12,1 C 8,5 C 13,3 km/h
04.06.2012 11:00 18,6 C 80 % 1010,5 hPa 0,0 l/m 19,4 km/h W-NW 15,1 C 14,5 C 10,8 km/h
04.06.2012 12:00 20,5 C 65 % 1010,1 hPa 0,0 l/m 9,7 km/h S 13,7 C 19,3 C 5,4 km/h
04.06.2012 13:00 17,6 C 69 % 1010,0 hPa 0,0 l/m 24,0 km/h SW 11,8 C 12,3 C 13,3 km/h
04.06.2012 14:00 21,5 C 57 % 1009,8 hPa 0,0 l/m 14,3 km/h S-SW 12,6 C 19,2 C 7,9 km/h
04.06.2012 15:00 21,8 C 56 % 1010,0 hPa 0,0 l/m 30,5 km/h SW 12,6 C 17,2 C 16,9 km/h
04.06.2012 16:00 18,9 C 56 % 1010,5 hPa 0,0 l/m 24,6 km/h W-SW 9,9 C 14,0 C 13,7 km/h
04.06.2012 17:00 17,6 C 63 % 1010,7 hPa 0,0 l/m 22,7 km/h W-SW 10,5 C 12,6 C 12,6 km/h
04.06.2012 18:00 18,1 C 61 % 1010,7 hPa 0,0 l/m 21,4 km/h S-SW 10,5 C 13,5 C 11,9 km/h
04.06.2012 19:00 16,4 C 67 % 1010,8 hPa 0,0 l/m 15,6 km/h W 10,3 C 12,7 C 8,6 km/h
04.06.2012 20:00 16,0 C 70 % 1011,3 hPa 0,0 l/m 5,8 km/h W 10,5 C 16,0 C 3,2 km/h
04.06.2012 21:00 15,3 C 73 % 1011,6 hPa 0,0 l/m 20,1 km/h W-SW 10,5 C 10,1 C 11,2 km/h
04.06.2012 22:00 14,6 C 74 % 1012,4 hPa 0,0 l/m 31,1 km/h NW 10,0 C 6,9 C 17,3 km/h
04.06.2012 23:00 13,3 C 82 % 1012,9 hPa 0,0 l/m 25,3 km/h W 10,3 C 6,2 C 14,0 km/h
05.06.2012 00:00 12,3 C 83 % 1013,6 hPa 0,7 l/m 2,6 km/h N-NO 9,5 C 12,3 C 1,4 km/h
05.06.2012 01:00 11,3 C 81 % 1014,4 hPa 0,0 l/m 13,6 km/h W-SW 8,2 C 7,3 C 7,6 km/h
05.06.2012 02:00 10,3 C 81 % 1015,1 hPa 0,0 l/m 0,0 km/h W 7,2 C 10,3 C 0,0 km/h
05.06.2012 03:00 9,8 C 82 % 1015,8 hPa 0,0 l/m 4,5 km/h NW 6,9 C 9,8 C 2,5 km/h
05.06.2012 04:00 9,6 C 78 % 1016,2 hPa 0,0 l/m 3,2 km/h N-NW 6,0 C 9,6 C 1,8 km/h
05.06.2012 05:00 9,2 C 78 % 1016,6 hPa 0,0 l/m 0,0 km/h O 5,6 C 9,2 C 0,0 km/h
05.06.2012 06:00 9,2 C 79 % 1017,2 hPa 0,0 l/m 0,0 km/h N-NO 5,8 C 9,2 C 0,0 km/h
05.06.2012 07:00 11,9 C 76 % 1017,3 hPa 0,0 l/m 0,0 km/h O-NO 7,8 C 11,9 C 0,0 km/h
05.06.2012 08:00 17,4 C 56 % 1017,3 hPa 0,0 l/m 0,0 km/h O-SO 8,5 C 17,4 C 0,0 km/h
05.06.2012 09:00 16,8 C 51 % 1017,7 hPa 0,0 l/m 1,3 km/h N-NO 6,6 C 16,8 C 0,7 km/h
05.06.2012 10:00 16,8 C 54 % 1017,7 hPa 0,0 l/m 2,6 km/h SO 7,4 C 16,8 C 1,4 km/h
05.06.2012 11:00 17,4 C 54 % 1017,6 hPa 0,0 l/m 0,0 km/h W-SW 8,0 C 17,4 C 0,0 km/h
05.06.2012 12:00 18,6 C 50 % 1017,1 hPa 0,0 l/m 0,0 km/h W 8,0 C 18,6 C 0,0 km/h
05.06.2012 13:00 19,2 C 49 % 1016,7 hPa 0,0 l/m 21,4 km/h N-NW 8,2 C 14,9 C 11,9 km/h
05.06.2012 14:00 21,2 C 43 % 1016,2 hPa 0,0 l/m 0,0 km/h W-NW 8,1 C 21,2 C 0,0 km/h
05.06.2012 15:00 21,8 C 45 % 1015,5 hPa 0,0 l/m 7,1 km/h W 9,3 C 21,6 C 4,0 km/h
05.06.2012 16:00 22,9 C 44 % 1014,7 hPa 0,0 l/m 4,5 km/h W-SW 10,0 C 22,9 C 2,5 km/h
05.06.2012 17:00 26,4 C 37 % 1014,1 hPa 0,0 l/m 1,3 km/h W 10,5 C 26,4 C 0,7 km/h
05.06.2012 18:00 21,4 C 42 % 1013,6 hPa 0,0 l/m 0,0 km/h NW 8,0 C 21,4 C 0,0 km/h
05.06.2012 19:00 19,4 C 47 % 1013,4 hPa 0,0 l/m 0,0 km/h W-NW 7,8 C 19,4 C 0,0 km/h
05.06.2012 20:00 16,5 C 55 % 1012,8 hPa 0,0 l/m 0,0 km/h O 7,4 C 16,5 C 0,0 km/h
05.06.2012 21:00 12,9 C 72 % 1012,4 hPa 0,0 l/m 0,0 km/h NO 8,0 C 12,9 C 0,0 km/h
05.06.2012 22:00 12,2 C 75 % 1012,1 hPa 0,0 l/m 0,0 km/h O-NO 7,9 C 12,2 C 0,0 km/h
05.06.2012 23:00 12,1 C 78 % 1011,4 hPa 0,0 l/m 0,0 km/h O-SO 8,4 C 12,1 C 0,0 km/h
06.06.2012 00:00 12,2 C 80 % 1011,0 hPa 0,0 l/m 0,0 km/h O-SO 8,9 C 12,2 C 0,0 km/h
06.06.2012 01:00 11,9 C 81 % 1010,7 hPa 0,0 l/m 0,0 km/h SO 8,7 C 11,9 C 0,0 km/h
06.06.2012 02:00 11,8 C 82 % 1009,7 hPa 0,0 l/m 0,0 km/h O-NO 8,8 C 11,8 C 0,0 km/h
06.06.2012 03:00 11,5 C 83 % 1009,8 hPa 0,0 l/m 0,0 km/h O 8,7 C 11,5 C 0,0 km/h
06.06.2012 04:00 11,8 C 83 % 1008,4 hPa 0,0 l/m 0,0 km/h O 9,0 C 11,8 C 0,0 km/h
06.06.2012 05:00 11,8 C 83 % 1009,0 hPa 0,0 l/m 0,0 km/h O 9,0 C 11,8 C 0,0 km/h
06.06.2012 06:00 12,1 C 83 % 1008,6 hPa 0,0 l/m 0,0 km/h O-NO 9,3 C 12,1 C 0,0 km/h
06.06.2012 07:00 12,8 C 83 % 1008,4 hPa 0,0 l/m 0,0 km/h SO 10,0 C 12,8 C 0,0 km/h
06.06.2012 08:00 13,8 C 82 % 1008,5 hPa 0,0 l/m 0,0 km/h SO 10,8 C 13,8 C 0,0 km/h
06.06.2012 09:00 15,3 C 79 % 1008,5 hPa 0,0 l/m 11,0 km/h SO 11,7 C 13,0 C 6,1 km/h
06.06.2012 10:00 17,4 C 72 % 1008,3 hPa 0,0 l/m 21,4 km/h W-SW 12,3 C 12,5 C 11,9 km/h
06.06.2012 11:00 18,3 C 74 % 1008,1 hPa 0,0 l/m 5,2 km/h SW 13,6 C 18,3 C 2,9 km/h
06.06.2012 12:00 16,9 C 76 % 1008,6 hPa 0,0 l/m 9,1 km/h W-SW 12,6 C 15,6 C 5,0 km/h
06.06.2012 13:00 17,8 C 73 % 1008,2 hPa 0,0 l/m 22,0 km/h S-SW 12,9 C 13,0 C 12,2 km/h
06.06.2012 14:00 17,1 C 78 % 1008,5 hPa 0,4 l/m 17,5 km/h SW 13,2 C 13,1 C 9,7 km/h
06.06.2012 15:00 20,6 C 75 % 1008,4 hPa 0,0 l/m 21,4 km/h W-SW 16,0 C 16,7 C 11,9 km/h
06.06.2012 16:00 20,5 C 70 % 1008,2 hPa 0,0 l/m 20,1 km/h W-SW 14,8 C 16,8 C 11,2 km/h
06.06.2012 17:00 19,3 C 70 % 1008,4 hPa 0,0 l/m 20,1 km/h W-SW 13,7 C 15,3 C 11,2 km/h
06.06.2012 18:00 20,8 C 64 % 1007,9 hPa 0,0 l/m 25,3 km/h SW 13,7 C 16,4 C 14,0 km/h
06.06.2012 19:00 19,3 C 68 % 1008,0 hPa 0,0 l/m 4,5 km/h W-SW 13,2 C 19,3 C 2,5 km/h
06.06.2012 20:00 18,7 C 71 % 1008,2 hPa 0,0 l/m 1,9 km/h S 13,3 C 18,7 C 1,1 km/h
06.06.2012 21:00 17,2 C 73 % 1008,2 hPa 0,0 l/m 0,0 km/h SO 12,3 C 17,2 C 0,0 km/h
06.06.2012 22:00 15,9 C 78 % 1008,5 hPa 0,0 l/m 0,0 km/h N-NO 12,1 C 15,9 C 0,0 km/h
06.06.2012 23:00 15,6 C 80 % 1008,1 hPa 0,0 l/m 0,0 km/h NO 12,2 C 15,6 C 0,0 km/h
07.06.2012 00:00 15,1 C 82 % 1008,3 hPa 0,0 l/m 0,0 km/h N-NO 12,0 C 15,1 C 0,0 km/h
07.06.2012 01:00 14,1 C 82 % 1008,2 hPa 0,0 l/m 0,0 km/h O 11,1 C 14,1 C 0,0 km/h
07.06.2012 02:00 13,6 C 84 % 1008,1 hPa 0,0 l/m 0,0 km/h SO 10,9 C 13,6 C 0,0 km/h
07.06.2012 03:00 13,9 C 84 % 1007,6 hPa 0,0 l/m 0,0 km/h N-NO 11,2 C 13,9 C 0,0 km/h
07.06.2012 04:00 13,6 C 84 % 1007,2 hPa 0,0 l/m 4,5 km/h O 10,9 C 13,6 C 2,5 km/h
07.06.2012 05:00 13,8 C 84 % 1006,9 hPa 0,0 l/m 0,0 km/h SO 11,1 C 13,8 C 0,0 km/h
07.06.2012 06:00 14,1 C 84 % 1006,4 hPa 0,0 l/m 0,0 km/h O 11,4 C 14,1 C 0,0 km/h
07.06.2012 07:00 15,8 C 83 % 1006,4 hPa 0,0 l/m 0,0 km/h W-NW 12,9 C 15,8 C 0,0 km/h
07.06.2012 08:00 20,1 C 77 % 1006,5 hPa 0,0 l/m 0,0 km/h W 15,9 C 20,1 C 0,0 km/h
07.06.2012 09:00 22,4 C 66 % 1005,6 hPa 0,0 l/m 0,0 km/h N-NW 15,7 C 22,4 C 0,0 km/h
07.06.2012 10:00 22,1 C 66 % 1005,6 hPa 0,0 l/m 0,0 km/h W 15,4 C 22,1 C 0,0 km/h
07.06.2012 11:00 26,8 C 54 % 1005,0 hPa 0,0 l/m 0,0 km/h SW 16,7 C 26,8 C 0,0 km/h
07.06.2012 12:00 23,0 C 64 % 1003,8 hPa 0,0 l/m 0,0 km/h N-NO 15,8 C 23,0 C 0,0 km/h
07.06.2012 13:00 22,2 C 72 % 1003,2 hPa 0,0 l/m 0,0 km/h O-SO 16,9 C 22,2 C 0,0 km/h
07.06.2012 14:00 27,4 C 64 % 1002,1 hPa 0,4 l/m 0,0 km/h W 20,0 C 27,4 C 0,0 km/h
07.06.2012 15:00 31,0 C 48 % 1000,7 hPa 0,0 l/m 1,3 km/h W-SW 18,7 C 31,0 C 0,7 km/h
07.06.2012 16:00 30,4 C 50 % 1000,1 hPa 0,0 l/m 0,0 km/h W 18,8 C 30,4 C 0,0 km/h
07.06.2012 17:00 26,4 C 59 % 1000,0 hPa 0,0 l/m 0,0 km/h S-SW 17,7 C 26,4 C 0,0 km/h
07.06.2012 18:00 21,1 C 77 % 1001,2 hPa 0,7 l/m 8,4 km/h S-SW 16,9 C 20,4 C 4,7 km/h
07.06.2012 19:00 18,2 C 83 % 1004,3 hPa 4,3 l/m 16,8 km/h S-SW 15,3 C 14,6 C 9,4 km/h
07.06.2012 20:00 16,9 C 83 % 1004,9 hPa 1,1 l/m 22,0 km/h S-SW 14,0 C 11,8 C 12,2 km/h
07.06.2012 21:00 16,9 C 82 % 1004,9 hPa 0,4 l/m 20,7 km/h SW 13,8 C 12,0 C 11,5 km/h
07.06.2012 22:00 17,2 C 83 % 1005,9 hPa 0,0 l/m 11,0 km/h W 14,3 C 15,2 C 6,1 km/h
07.06.2012 23:00 17,4 C 83 % 1005,9 hPa 0,0 l/m 11,0 km/h O-SO 14,5 C 15,4 C 6,1 km/h
08.06.2012 00:00 16,8 C 81 % 1005,9 hPa 0,7 l/m 2,6 km/h O-SO 13,5 C 16,8 C 1,4 km/h
08.06.2012 01:00 16,3 C 81 % 1006,9 hPa 0,0 l/m 0,0 km/h SO 13,0 C 16,3 C 0,0 km/h
08.06.2012 02:00 15,9 C 81 % 1005,5 hPa 0,7 l/m 0,0 km/h SO 12,6 C 15,9 C 0,0 km/h
08.06.2012 03:00 16,2 C 80 % 1006,6 hPa 0,0 l/m 13,6 km/h S-SO 12,7 C 13,1 C 7,6 km/h
08.06.2012 04:00 15,6 C 80 % 1006,5 hPa 0,7 l/m 4,5 km/h S-SW 12,2 C 15,6 C 2,5 km/h
08.06.2012 05:00 14,9 C 79 % 1006,5 hPa 0,0 l/m 0,0 km/h NO 11,3 C 14,9 C 0,0 km/h
08.06.2012 06:00 14,9 C 77 % 1006,9 hPa 0,0 l/m 0,0 km/h O-NO 10,9 C 14,9 C 0,0 km/h
08.06.2012 07:00 16,2 C 75 % 1007,7 hPa 0,0 l/m 0,0 km/h N-NO 11,8 C 16,2 C 0,0 km/h
08.06.2012 08:00 17,7 C 79 % 1008,2 hPa 0,0 l/m 0,0 km/h S-SW 14,0 C 17,7 C 0,0 km/h
08.06.2012 09:00 16,5 C 82 % 1008,8 hPa 0,4 l/m 4,5 km/h S-SW 13,4 C 16,5 C 2,5 km/h
08.06.2012 10:00 16,4 C 83 % 1009,4 hPa 0,4 l/m 9,1 km/h W-SW 13,5 C 15,1 C 5,0 km/h
08.06.2012 11:00 18,3 C 79 % 1009,3 hPa 0,0 l/m 1,3 km/h SW 14,6 C 18,3 C 0,7 km/h
08.06.2012 12:00 16,9 C 80 % 1010,2 hPa 0,0 l/m 7,1 km/h S 13,4 C 16,5 C 4,0 km/h
08.06.2012 13:00 16,6 C 81 % 1010,5 hPa 0,0 l/m 24,6 km/h SW 13,3 C 10,9 C 13,7 km/h
08.06.2012 14:00 17,6 C 76 % 1010,5 hPa 0,0 l/m 29,8 km/h S-SW 13,3 C 11,4 C 16,6 km/h
08.06.2012 15:00 17,4 C 76 % 1010,7 hPa 0,0 l/m 6,5 km/h S-SW 13,1 C 17,4 C 3,6 km/h
08.06.2012 16:00 18,7 C 71 % 1010,9 hPa 0,0 l/m 17,5 km/h S-SW 13,3 C 15,1 C 9,7 km/h
08.06.2012 17:00 22,3 C 57 % 1010,6 hPa 0,0 l/m 19,4 km/h W 13,4 C 19,3 C 10,8 km/h
08.06.2012 18:00 22,8 C 54 % 1010,5 hPa 0,0 l/m 18,8 km/h W-SW 13,0 C 20,0 C 10,4 km/h
08.06.2012 19:00 19,9 C 60 % 1010,7 hPa 0,0 l/m 8,4 km/h S-SW 11,9 C 19,1 C 4,7 km/h
08.06.2012 20:00 17,8 C 67 % 1011,1 hPa 0,0 l/m 0,0 km/h O-SO 11,6 C 17,8 C 0,0 km/h
08.06.2012 21:00 15,4 C 73 % 1011,2 hPa 0,0 l/m 1,3 km/h N-NO 10,6 C 15,4 C 0,7 km/h
08.06.2012 22:00 13,8 C 82 % 1011,9 hPa 0,0 l/m 0,0 km/h NO 10,8 C 13,8 C 0,0 km/h
08.06.2012 23:00 13,3 C 83 % 1012,0 hPa 0,0 l/m 0,0 km/h O-SO 10,5 C 13,3 C 0,0 km/h
09.06.2012 00:00 13,3 C 83 % 1012,7 hPa 0,0 l/m 0,0 km/h O-SO 10,5 C 13,3 C 0,0 km/h
09.06.2012 01:00 12,9 C 84 % 1013,0 hPa 0,0 l/m 0,0 km/h O-NO 10,3 C 12,9 C 0,0 km/h
09.06.2012 02:00 13,3 C 84 % 1013,2 hPa 0,0 l/m 0,0 km/h S-SW 10,7 C 13,3 C 0,0 km/h
09.06.2012 03:00 13,2 C 84 % 1013,2 hPa 0,0 l/m 0,0 km/h N 10,6 C 13,2 C 0,0 km/h
09.06.2012 04:00 13,9 C 81 % 1013,7 hPa 0,0 l/m 0,0 km/h SW 10,7 C 13,9 C 0,0 km/h
09.06.2012 05:00 13,9 C 80 % 1013,8 hPa 0,0 l/m 0,0 km/h S-SW 10,5 C 13,9 C 0,0 km/h
09.06.2012 06:00 14,2 C 79 % 1014,1 hPa 0,0 l/m 0,0 km/h SW 10,6 C 14,2 C 0,0 km/h
09.06.2012 07:00 14,9 C 76 % 1014,4 hPa 0,0 l/m 0,0 km/h S-SW 10,7 C 14,9 C 0,0 km/h
09.06.2012 08:00 17,4 C 69 % 1014,7 hPa 0,0 l/m 19,4 km/h W 11,7 C 13,0 C 10,8 km/h
09.06.2012 09:00 22,2 C 57 % 1014,9 hPa 0,0 l/m 7,8 km/h W-SW 13,3 C 21,7 C 4,3 km/h
09.06.2012 10:00 19,8 C 57 % 1014,5 hPa 0,0 l/m 24,6 km/h W-SW 11,0 C 15,2 C 13,7 km/h
09.06.2012 11:00 20,6 C 56 % 1014,5 hPa 0,0 l/m 40,2 km/h W 11,5 C 14,6 C 22,3 km/h
09.06.2012 12:00 20,8 C 55 % 1014,7 hPa 0,0 l/m 22,0 km/h SW 11,4 C 16,9 C 12,2 km/h
09.06.2012 13:00 21,9 C 54 % 1014,3 hPa 0,0 l/m 23,3 km/h S-SW 12,2 C 18,2 C 13,0 km/h
09.06.2012 14:00 22,1 C 51 % 1013,8 hPa 0,0 l/m 26,6 km/h SW 11,5 C 18,0 C 14,8 km/h
09.06.2012 15:00 23,6 C 48 % 1013,6 hPa 0,0 l/m 25,3 km/h W 11,9 C 20,2 C 14,0 km/h
09.06.2012 16:00 24,2 C 41 % 1013,1 hPa 0,0 l/m 17,5 km/h W 10,1 C 22,0 C 9,7 km/h
09.06.2012 17:00 26,0 C 36 % 1012,6 hPa 0,0 l/m 14,9 km/h S-SW 9,8 C 24,5 C 8,3 km/h
09.06.2012 18:00 22,2 C 43 % 1012,6 hPa 0,0 l/m 1,9 km/h NO 9,0 C 22,2 C 1,1 km/h
09.06.2012 19:00 19,3 C 47 % 1012,9 hPa 0,0 l/m 0,0 km/h N-NO 7,7 C 19,3 C 0,0 km/h
09.06.2012 20:00 17,4 C 52 % 1013,2 hPa 0,0 l/m 0,0 km/h N-NO 7,4 C 17,4 C 0,0 km/h
09.06.2012 21:00 14,7 C 61 % 1013,0 hPa 0,0 l/m 0,0 km/h O-NO 7,3 C 14,7 C 0,0 km/h
09.06.2012 22:00 13,7 C 72 % 1013,1 hPa 0,0 l/m 0,0 km/h O-NO 8,7 C 13,7 C 0,0 km/h
09.06.2012 23:00 12,3 C 74 % 1012,6 hPa 0,0 l/m 0,0 km/h SO 7,8 C 12,3 C 0,0 km/h
10.06.2012 00:00 12,0 C 76 % 1013,1 hPa 0,0 l/m 0,0 km/h O 7,9 C 12,0 C 0,0 km/h
10.06.2012 01:00 11,3 C 78 % 1013,0 hPa 0,0 l/m 0,0 km/h O 7,6 C 11,3 C 0,0 km/h
10.06.2012 02:00 11,1 C 79 % 1012,7 hPa 0,0 l/m 0,0 km/h O-NO 7,6 C 11,1 C 0,0 km/h
10.06.2012 03:00 10,9 C 82 % 1012,7 hPa 0,0 l/m 0,0 km/h O-NO 7,9 C 10,9 C 0,0 km/h
10.06.2012 04:00 10,9 C 82 % 1012,8 hPa 0,0 l/m 0,0 km/h O-NO 7,9 C 10,9 C 0,0 km/h
10.06.2012 05:00 11,2 C 82 % 1012,9 hPa 0,0 l/m 0,0 km/h O-NO 8,2 C 11,2 C 0,0 km/h
10.06.2012 06:00 11,3 C 83 % 1013,0 hPa 0,0 l/m 0,0 km/h O-NO 8,5 C 11,3 C 0,0 km/h
10.06.2012 07:00 12,1 C 83 % 1012,6 hPa 0,0 l/m 0,0 km/h O-NO 9,3 C 12,1 C 0,0 km/h
10.06.2012 08:00 15,3 C 77 % 1012,3 hPa 0,0 l/m 0,0 km/h N-NO 11,3 C 15,3 C 0,0 km/h
10.06.2012 09:00 21,0 C 57 % 1012,0 hPa 0,0 l/m 0,0 km/h W-SW 12,1 C 21,0 C 0,0 km/h
10.06.2012 10:00 25,2 C 42 % 1011,0 hPa 0,0 l/m 3,2 km/h N 11,4 C 25,2 C 1,8 km/h
10.06.2012 11:00 23,4 C 41 % 1010,1 hPa 0,0 l/m 0,0 km/h N-NW 9,4 C 23,4 C 0,0 km/h
10.06.2012 12:00 20,3 C 52 % 1009,9 hPa 0,0 l/m 0,0 km/h W-NW 10,1 C 20,3 C 0,0 km/h
10.06.2012 13:00 24,4 C 44 % 1009,1 hPa 0,0 l/m 0,0 km/h SO 11,3 C 24,4 C 0,0 km/h
10.06.2012 14:00 23,9 C 47 % 1008,3 hPa 0,0 l/m 2,6 km/h O 11,9 C 23,9 C 1,4 km/h
10.06.2012 15:00 22,9 C 45 % 1007,3 hPa 0,0 l/m 0,0 km/h SO 10,3 C 22,9 C 0,0 km/h
10.06.2012 16:00 26,6 C 39 % 1006,6 hPa 0,0 l/m 7,8 km/h W 11,5 C 26,3 C 4,3 km/h
10.06.2012 17:00 22,2 C 46 % 1006,1 hPa 0,0 l/m 0,0 km/h SW 10,0 C 22,2 C 0,0 km/h
10.06.2012 18:00 20,9 C 50 % 1005,7 hPa 0,0 l/m 0,0 km/h W 10,1 C 20,9 C 0,0 km/h
10.06.2012 19:00 19,8 C 55 % 1005,4 hPa 0,0 l/m 0,0 km/h S-SO 10,5 C 19,8 C 0,0 km/h
10.06.2012 20:00 17,6 C 67 % 1004,9 hPa 0,0 l/m 0,0 km/h O 11,4 C 17,6 C 0,0 km/h
10.06.2012 21:00 16,1 C 70 % 1004,7 hPa 0,0 l/m 0,0 km/h NO 10,6 C 16,1 C 0,0 km/h
10.06.2012 22:00 14,9 C 75 % 1004,8 hPa 0,0 l/m 0,0 km/h W-SW 10,5 C 14,9 C 0,0 km/h
10.06.2012 23:00 14,9 C 78 % 1005,1 hPa 0,0 l/m 9,7 km/h S-SO 11,1 C 13,1 C 5,4 km/h
Min-Datum _ 05.06.12 09.06.12 07.06.12 - 04.06.12 - 05.06.12 04.06.12 04.06.12
_ Min-Zeit 05:30 17:30 17:30 - 00:30 - 05:30 23:30 00:30
Minimum _ 9,2 C 36 % 1000,0 hPa - 0,0 km/h - 5,6 C 6,2 C 0,0 km/h
Max-Datum _ 07.06.12 04.06.12 05.06.12 07.06.12 09.06.12 - 07.06.12 07.06.12 09.06.12
_ Max-Zeit 15:30 10:30 09:30 19:30 11:30 - 14:30 15:30 11:30
Maximum _ 31,0 C 84 % 1017,7 hPa 4,3 l/m 40,2 km/h
W
- 20,0 C 31,0 C 22,3 km/h
W
Durchschnitt _ 17,0 C 70 % 1010,2 hPa #13,5 l/m 6,2 km/h W 11,0 C 15,9 C 3,5 km/h
www.sexauwetter.de